createdAt,value
2022-09-12T00:00:51.651Z,3.53
2022-09-12T00:03:18.410Z,4.60
2022-09-12T00:05:47.238Z,4.37
2022-09-12T00:08:14.894Z,4.40
2022-09-12T00:10:43.823Z,4.87
2022-09-12T00:13:11.859Z,4.50
2022-09-12T00:15:39.887Z,4.67
2022-09-12T00:18:08.160Z,4.53
2022-09-12T00:20:34.875Z,4.60
2022-09-12T00:23:01.723Z,4.07
2022-09-12T00:25:31.045Z,4.20
2022-09-12T00:27:57.752Z,4.03
2022-09-12T00:30:25.208Z,3.40
2022-09-12T00:32:54.602Z,5.80
2022-09-12T00:35:21.348Z,4.10
2022-09-12T00:37:48.059Z,3.93
2022-09-12T00:40:15.105Z,3.90
2022-09-12T00:42:41.835Z,3.93
2022-09-12T00:45:23.592Z,3.43
2022-09-12T00:47:50.572Z,3.50
2022-09-12T00:50:20.931Z,4.30
2022-09-12T00:53:08.047Z,3.53
2022-09-12T00:55:49.014Z,3.87
2022-09-12T00:58:57.818Z,4.17
2022-09-12T01:01:25.937Z,3.97
2022-09-12T01:03:54.227Z,5.07
2022-09-12T01:06:32.454Z,4.93
2022-09-12T01:09:03.558Z,5.80
2022-09-12T01:11:34.346Z,5.47
2022-09-12T01:14:01.145Z,5.40
2022-09-12T01:16:28.128Z,6.07
2022-09-12T01:19:19.050Z,5.73
2022-09-12T01:22:14.110Z,4.70
2022-09-12T01:24:46.959Z,4.63
2022-09-12T01:27:25.706Z,4.13
2022-09-12T01:30:19.920Z,7.40
2022-09-12T01:33:13.318Z,4.77
2022-09-12T01:35:53.893Z,6.20
2022-09-12T01:38:43.144Z,4.97
2022-09-12T01:41:14.578Z,4.80
2022-09-12T01:44:02.366Z,4.80
2022-09-12T01:46:37.133Z,5.30
2022-09-12T01:49:32.937Z,4.90
2022-09-12T01:52:08.899Z,5.30
2022-09-12T01:54:41.233Z,7.03
2022-09-12T01:57:25.625Z,4.57
2022-09-12T01:59:57.371Z,4.43
2022-09-12T02:02:33.465Z,5.23
2022-09-12T02:05:06.817Z,4.97
2022-09-12T02:07:51.363Z,4.63
2022-09-12T02:10:23.266Z,3.50
2022-09-12T02:12:56.545Z,3.90
2022-09-12T02:15:32.546Z,4.20
2022-09-12T02:18:04.533Z,3.57
2022-09-12T02:20:48.070Z,4.27
2022-09-12T02:23:26.394Z,3.90
2022-09-12T02:25:58.872Z,3.70
2022-09-12T02:28:30.944Z,3.47
2022-09-12T02:31:09.306Z,4.13
2022-09-12T02:33:45.086Z,3.60
2022-09-12T02:36:30.932Z,3.90
2022-09-12T02:38:57.912Z,3.97
2022-09-12T02:41:25.056Z,4.00
2022-09-12T02:43:53.133Z,4.17
2022-09-12T02:46:28.734Z,3.60
2022-09-12T02:48:56.519Z,3.50
2022-09-12T02:51:23.897Z,3.50
2022-09-12T02:53:51.383Z,3.50
2022-09-12T02:56:30.989Z,3.40
2022-09-12T02:59:02.540Z,3.73
2022-09-12T03:02:12.576Z,3.40
2022-09-12T03:05:10.068Z,3.90
2022-09-12T03:07:54.556Z,3.50
2022-09-12T03:10:43.131Z,3.67
2022-09-12T03:13:12.922Z,5.27
2022-09-12T03:16:04.211Z,6.37
2022-09-12T03:18:51.837Z,5.87
2022-09-12T03:21:28.716Z,5.87
2022-09-12T03:24:10.030Z,5.30
2022-09-12T03:26:43.146Z,6.63
2022-09-12T03:29:11.870Z,5.67
2022-09-12T03:31:52.264Z,5.30
2022-09-12T03:34:20.424Z,5.80
2022-09-12T03:36:47.528Z,5.60
2022-09-12T03:39:14.776Z,4.83
2022-09-12T03:41:41.657Z,4.80
2022-09-12T03:44:08.685Z,4.90
2022-09-12T03:46:36.583Z,4.70
2022-09-12T03:49:04.671Z,4.10
2022-09-12T03:51:31.375Z,4.20
2022-09-12T03:53:58.185Z,4.10
2022-09-12T03:56:25.163Z,3.70
2022-09-12T03:58:51.877Z,3.70
2022-09-12T04:01:20.209Z,3.40
2022-09-12T04:03:49.207Z,4.77
2022-09-12T04:06:19.034Z,5.17
2022-09-12T04:08:50.504Z,5.67
2022-09-12T04:11:19.995Z,6.87
2022-09-12T04:13:48.566Z,7.30
2022-09-12T04:16:16.695Z,7.07
2022-09-12T04:18:43.679Z,5.70
2022-09-12T04:21:16.294Z,5.43
2022-09-12T04:23:43.342Z,4.77
2022-09-12T04:26:10.772Z,7.43
2022-09-12T04:28:38.553Z,6.37
2022-09-12T04:31:24.919Z,5.63
2022-09-12T04:34:00.962Z,6.50
2022-09-12T04:36:28.992Z,6.20
2022-09-12T04:38:56.101Z,6.57
2022-09-12T04:41:25.460Z,6.07
2022-09-12T04:43:55.132Z,5.97
2022-09-12T04:46:22.028Z,6.83
2022-09-12T04:48:52.288Z,6.90
2022-09-12T04:51:27.782Z,7.50
2022-09-12T04:54:25.353Z,6.17
2022-09-12T04:56:52.539Z,6.67
2022-09-12T04:59:21.429Z,5.50
2022-09-12T05:01:48.672Z,5.27
2022-09-12T05:04:15.788Z,5.93
2022-09-12T05:06:43.414Z,5.23
2022-09-12T05:09:14.334Z,6.63
2022-09-12T05:14:32.630Z,5.33
2022-09-12T05:17:01.311Z,5.67
2022-09-12T05:19:30.063Z,4.80
2022-09-12T05:21:56.944Z,4.83
2022-09-12T05:24:24.742Z,5.37
2022-09-12T05:26:51.884Z,5.97
2022-09-12T05:29:18.995Z,4.67
2022-09-12T05:31:45.849Z,6.10
2022-09-12T05:34:12.686Z,6.23
2022-09-12T05:36:39.461Z,6.93
2022-09-12T05:39:06.654Z,7.50
2022-09-12T05:41:34.587Z,8.77
2022-09-12T05:44:03.528Z,8.73
2022-09-12T05:46:37.106Z,8.03
2022-09-12T05:49:06.234Z,9.10
2022-09-12T05:51:36.240Z,10.97
2022-09-12T05:54:04.475Z,8.87
2022-09-12T05:56:34.305Z,9.10
2022-09-12T05:59:04.049Z,10.17
2022-09-12T06:01:32.652Z,8.07
2022-09-12T06:04:01.269Z,10.47
2022-09-12T06:06:30.465Z,9.60
2022-09-12T06:09:01.267Z,11.20
2022-09-12T06:11:30.419Z,11.93
2022-09-12T06:13:58.441Z,11.00
2022-09-12T06:16:28.910Z,9.60
2022-09-12T06:18:58.144Z,10.47
2022-09-12T06:21:26.604Z,8.73
2022-09-12T06:23:58.612Z,9.80
2022-09-12T06:26:26.183Z,14.23
2022-09-12T06:28:55.156Z,15.83
2022-09-12T06:31:28.746Z,19.50
2022-09-12T06:33:57.103Z,28.73
2022-09-12T06:36:26.847Z,35.93
2022-09-12T06:38:57.053Z,39.83
2022-09-12T06:41:24.485Z,36.13
2022-09-12T06:43:51.539Z,35.93
2022-09-12T06:46:18.951Z,31.33
2022-09-12T06:48:45.819Z,33.67
2022-09-12T06:51:15.224Z,26.77
2022-09-12T06:53:44.281Z,23.47
2022-09-12T06:56:14.554Z,21.57
2022-09-12T06:58:42.703Z,15.63
2022-09-12T07:01:16.748Z,14.57
2022-09-12T07:03:51.749Z,11.00
2022-09-12T07:06:20.379Z,10.13
2022-09-12T07:08:48.004Z,9.90
2022-09-12T07:11:19.033Z,8.83
2022-09-12T07:13:48.265Z,8.63
2022-09-12T07:16:19.424Z,9.77
2022-09-12T07:18:51.890Z,9.17
2022-09-12T07:21:18.816Z,7.93
2022-09-12T07:23:46.086Z,7.30
2022-09-12T07:26:14.369Z,7.80
2022-09-12T07:28:41.354Z,6.97
2022-09-12T07:31:12.654Z,14.83
2022-09-12T07:33:40.343Z,6.70
2022-09-12T07:36:13.861Z,6.23
2022-09-12T07:38:41.557Z,6.33
2022-09-12T07:41:18.634Z,5.57
2022-09-12T07:43:45.817Z,5.95
2022-09-12T07:46:13.575Z,4.68
2022-09-12T07:48:41.022Z,6.25
2022-09-12T07:51:09.687Z,5.03
2022-09-12T07:53:41.556Z,4.25
2022-09-12T07:56:12.944Z,4.40
2022-09-12T07:58:41.794Z,4.90
2022-09-12T08:01:13.168Z,3.30
2022-09-12T08:03:41.763Z,7.88
2022-09-12T08:06:20.280Z,4.15
2022-09-12T08:08:47.893Z,4.43
2022-09-12T08:11:16.766Z,3.33
2022-09-12T08:13:44.393Z,3.78
2022-09-12T08:16:15.193Z,3.50
2022-09-12T08:18:42.297Z,3.30
2022-09-12T08:21:12.940Z,2.60
2022-09-12T08:23:39.663Z,4.32
2022-09-12T08:26:06.832Z,3.00
2022-09-12T08:28:35.429Z,3.00
2022-09-12T08:31:08.238Z,2.60
2022-09-12T08:33:35.435Z,2.65
2022-09-12T08:36:15.144Z,3.58
2022-09-12T08:38:44.394Z,2.92
2022-09-12T08:41:36.574Z,1.88
2022-09-12T08:44:18.058Z,2.63
2022-09-12T08:47:02.965Z,2.70
2022-09-12T08:49:33.681Z,4.47
2022-09-12T08:52:07.144Z,2.28
2022-09-12T08:54:35.138Z,3.20
2022-09-12T08:57:04.721Z,2.85
2022-09-12T08:59:38.503Z,2.45
2022-09-12T09:02:23.174Z,4.68
2022-09-12T09:05:13.588Z,3.83
2022-09-12T09:07:55.852Z,2.13
2022-09-12T09:10:25.623Z,2.72
2022-09-12T09:13:49.146Z,3.90
2022-09-12T09:16:31.732Z,2.78
2022-09-12T09:19:31.409Z,4.90
2022-09-12T09:22:02.856Z,2.20
2022-09-12T09:24:43.289Z,3.28
2022-09-12T09:27:42.007Z,1.90
2022-09-12T09:30:15.425Z,2.35
2022-09-12T09:32:44.926Z,1.90
2022-09-12T09:35:16.956Z,1.65
2022-09-12T09:37:58.558Z,3.75
2022-09-12T09:40:36.935Z,1.77
2022-09-12T09:43:22.915Z,4.80
2022-09-12T09:45:51.836Z,2.17
2022-09-12T09:48:27.622Z,2.15
2022-09-12T09:50:54.655Z,2.33
2022-09-12T09:53:46.323Z,1.63
2022-09-12T09:56:35.074Z,2.63
2022-09-12T09:59:27.291Z,2.25
2022-09-12T10:01:57.563Z,1.55
2022-09-12T10:04:41.439Z,1.40
2022-09-12T10:07:19.291Z,1.98
2022-09-12T10:10:06.785Z,1.42
2022-09-12T10:12:33.662Z,1.60
2022-09-12T10:15:03.416Z,1.98
2022-09-12T10:17:53.542Z,2.05
2022-09-12T10:20:43.073Z,1.85
2022-09-12T10:23:19.038Z,2.95
2022-09-12T10:25:48.531Z,2.20
2022-09-12T10:28:31.878Z,1.75
2022-09-12T10:31:02.998Z,2.28
2022-09-12T10:33:31.610Z,2.13
2022-09-12T10:35:59.157Z,2.80
2022-09-12T10:38:32.583Z,1.75
2022-09-12T10:41:01.215Z,2.67
2022-09-12T10:43:35.974Z,3.53
2022-09-12T10:46:15.816Z,2.60
2022-09-12T10:48:44.221Z,5.75
2022-09-12T10:51:24.453Z,4.95
2022-09-12T10:53:53.637Z,2.05
2022-09-12T10:56:31.382Z,2.20
2022-09-12T10:59:29.007Z,4.00
2022-09-12T11:02:28.572Z,2.92
2022-09-12T11:05:11.075Z,17.77
2022-09-12T11:07:43.886Z,25.33
2022-09-12T11:10:10.814Z,9.07
2022-09-12T11:12:57.318Z,2.38
2022-09-12T11:15:35.386Z,5.45
2022-09-12T11:18:30.455Z,2.30
2022-09-12T11:21:16.572Z,3.60
2022-09-12T11:24:30.945Z,3.03
2022-09-12T11:27:09.423Z,1.67
2022-09-12T11:29:40.193Z,2.35
2022-09-12T11:32:27.673Z,20.17
2022-09-12T11:35:26.213Z,1.60
2022-09-12T11:38:00.776Z,3.72
2022-09-12T11:40:40.559Z,3.35
2022-09-12T11:43:21.956Z,2.05
2022-09-12T11:45:51.826Z,1.40
2022-09-12T11:48:28.097Z,1.23
2022-09-12T11:50:55.250Z,3.95
2022-09-12T11:53:30.012Z,1.80
2022-09-12T11:56:09.354Z,1.45
2022-09-12T11:58:37.425Z,1.30
2022-09-12T12:01:21.631Z,2.45
2022-09-12T12:03:52.467Z,1.65
2022-09-12T12:06:26.613Z,1.70
2022-09-12T12:08:53.673Z,1.90
2022-09-12T12:11:36.971Z,1.35
2022-09-12T12:14:21.987Z,2.92
2022-09-12T12:16:50.877Z,2.67
2022-09-12T12:19:17.574Z,1.83
2022-09-12T12:21:47.262Z,2.03
2022-09-12T12:24:14.000Z,1.23
2022-09-12T12:26:40.773Z,2.15
2022-09-12T12:29:11.615Z,1.67
2022-09-12T12:32:10.483Z,1.40
2022-09-12T12:34:47.579Z,2.35
2022-09-12T12:37:20.285Z,1.50
2022-09-12T12:39:48.382Z,1.33
2022-09-12T12:42:36.485Z,1.35
2022-09-12T12:45:10.086Z,1.30
2022-09-12T12:47:44.479Z,1.90
2022-09-12T12:50:11.475Z,1.38
2022-09-12T12:52:50.157Z,1.00
2022-09-12T12:55:33.226Z,1.40
2022-09-12T12:58:02.549Z,1.65
2022-09-12T13:00:35.453Z,2.67
2022-09-12T13:03:08.033Z,0.85
2022-09-12T13:05:47.245Z,2.25
2022-09-12T13:08:16.942Z,1.15
2022-09-12T13:10:59.639Z,0.90
2022-09-12T13:13:39.836Z,1.80
2022-09-12T13:16:07.704Z,1.20
2022-09-12T13:18:40.798Z,3.95
2022-09-12T13:21:17.124Z,1.42
2022-09-12T13:23:45.052Z,1.00
2022-09-12T13:26:23.913Z,1.30
2022-09-12T13:28:51.479Z,1.30
2022-09-12T13:31:25.393Z,3.30
2022-09-12T13:33:59.285Z,3.17
2022-09-12T13:36:29.102Z,1.83
2022-09-12T13:39:16.266Z,3.10
2022-09-12T13:41:49.178Z,1.30
2022-09-12T13:44:19.481Z,3.40
2022-09-12T13:46:47.182Z,2.50
2022-09-12T13:49:35.726Z,2.42
2022-09-12T13:52:06.845Z,1.25
2022-09-12T13:54:37.830Z,3.05
2022-09-12T13:57:05.304Z,0.90
2022-09-12T13:59:44.244Z,1.23
2022-09-12T14:02:20.732Z,2.65
2022-09-12T14:05:09.016Z,1.10
2022-09-12T14:08:01.389Z,0.70
2022-09-12T14:10:35.588Z,1.73
2022-09-12T14:13:05.492Z,2.38
2022-09-12T14:15:35.982Z,1.60
2022-09-12T14:18:05.205Z,0.80
2022-09-12T14:20:41.906Z,0.93
2022-09-12T14:23:24.367Z,1.33
2022-09-12T14:25:52.067Z,0.90
2022-09-12T14:28:23.408Z,1.10
2022-09-12T14:31:17.436Z,1.90
2022-09-12T14:33:49.786Z,2.58
2022-09-12T14:36:36.471Z,2.75
2022-09-12T14:39:17.563Z,1.80
2022-09-12T14:41:44.544Z,5.03
2022-09-12T14:44:22.536Z,0.80
2022-09-12T14:46:51.108Z,2.17
2022-09-12T14:49:36.590Z,1.10
2022-09-12T14:52:07.094Z,0.93
2022-09-12T14:54:33.908Z,0.88
2022-09-12T14:57:27.481Z,0.77
2022-09-12T15:00:05.198Z,4.18
2022-09-12T15:02:34.363Z,0.80
2022-09-12T15:05:04.206Z,0.75
2022-09-12T15:07:39.830Z,1.30
2022-09-12T15:10:22.047Z,1.10
2022-09-12T15:12:49.484Z,1.20
2022-09-12T15:15:20.991Z,2.47
2022-09-12T15:17:48.774Z,0.90
2022-09-12T15:20:15.551Z,0.93
2022-09-12T15:22:42.589Z,1.38
2022-09-12T15:25:12.369Z,1.20
2022-09-12T15:27:42.330Z,0.80
2022-09-12T15:30:10.389Z,1.27
2022-09-12T15:32:37.560Z,2.15
2022-09-12T15:35:10.137Z,2.30
2022-09-12T15:37:36.914Z,1.60
2022-09-12T15:40:04.916Z,1.35
2022-09-12T15:42:32.104Z,1.10
2022-09-12T15:45:02.497Z,0.70
2022-09-12T15:47:29.703Z,1.00
2022-09-12T15:49:56.546Z,1.08
2022-09-12T15:52:23.255Z,1.17
2022-09-12T15:54:50.181Z,0.80
2022-09-12T15:57:17.216Z,0.70
2022-09-12T15:59:44.062Z,1.08
2022-09-12T16:02:11.715Z,1.02
2022-09-12T16:04:38.429Z,1.85
2022-09-12T16:07:05.407Z,0.90
2022-09-12T16:09:32.420Z,1.95
2022-09-12T16:11:59.172Z,1.92
2022-09-12T16:14:25.925Z,1.10
2022-09-12T16:16:54.314Z,1.30
2022-09-12T16:19:21.119Z,0.80
2022-09-12T16:21:48.216Z,0.70
2022-09-12T16:24:15.077Z,1.70
2022-09-12T16:26:42.233Z,0.80
2022-09-12T16:29:12.460Z,0.88
2022-09-12T16:31:40.054Z,1.75
2022-09-12T16:34:07.365Z,0.70
2022-09-12T16:36:34.501Z,0.88
2022-09-12T16:39:01.264Z,0.95
2022-09-12T16:41:28.237Z,0.73
2022-09-12T16:43:55.551Z,1.77
2022-09-12T16:46:25.468Z,1.50
2022-09-12T16:48:54.473Z,1.05
2022-09-12T16:51:27.491Z,0.82
2022-09-12T16:53:55.845Z,0.77
2022-09-12T16:56:23.483Z,3.22
2022-09-12T16:58:50.583Z,0.70
2022-09-12T17:01:22.874Z,0.70
2022-09-12T17:03:56.781Z,0.77
2022-09-12T17:06:26.618Z,0.60
2022-09-12T17:08:54.965Z,0.88
2022-09-12T17:11:30.365Z,1.73
2022-09-12T17:14:06.741Z,0.70
2022-09-12T17:16:36.462Z,0.63
2022-09-12T17:19:04.429Z,0.98
2022-09-12T17:21:31.457Z,1.10
2022-09-12T17:23:59.182Z,1.23
2022-09-12T17:26:26.736Z,1.10
2022-09-12T17:28:55.648Z,0.80
2022-09-12T17:31:22.441Z,1.60
2022-09-12T17:33:49.391Z,1.00
2022-09-12T17:36:17.920Z,0.97
2022-09-12T17:38:45.818Z,1.57
2022-09-12T17:41:21.899Z,0.80
2022-09-12T17:43:51.928Z,2.00
2022-09-12T17:46:21.008Z,0.80
2022-09-12T17:48:52.748Z,1.00
2022-09-12T17:51:20.060Z,1.60
2022-09-12T17:53:47.382Z,0.70
2022-09-12T17:56:15.855Z,0.80
2022-09-12T17:58:42.911Z,0.83
2022-09-12T18:01:33.326Z,2.20
2022-09-12T18:04:01.088Z,2.53
2022-09-12T18:06:28.683Z,1.17
2022-09-12T18:08:55.811Z,0.90
2022-09-12T18:11:22.697Z,0.83
2022-09-12T18:13:50.564Z,2.23
2022-09-12T18:16:17.517Z,1.37
2022-09-12T18:18:44.417Z,1.53
2022-09-12T18:21:12.518Z,2.77
2022-09-12T18:23:39.552Z,1.63
2022-09-12T18:26:08.974Z,1.30
2022-09-12T18:28:40.939Z,1.70
2022-09-12T18:31:14.121Z,4.20
2022-09-12T18:33:41.472Z,2.00
2022-09-12T18:36:10.393Z,2.33
2022-09-12T18:38:37.791Z,2.90
2022-09-12T18:41:16.599Z,4.23
2022-09-12T18:43:56.702Z,4.03
2022-09-12T18:46:28.501Z,3.97
2022-09-12T18:48:57.889Z,2.43
2022-09-12T18:51:31.903Z,2.23
2022-09-12T18:54:01.580Z,3.33
2022-09-12T18:56:32.908Z,2.60
2022-09-12T18:59:00.968Z,2.07
2022-09-12T19:01:33.372Z,2.30
2022-09-12T19:04:06.101Z,2.60
2022-09-12T19:06:36.629Z,1.67
2022-09-12T19:09:07.753Z,2.80
2022-09-12T19:11:36.535Z,2.80
2022-09-12T19:14:07.710Z,3.07
2022-09-12T19:16:36.160Z,2.13
2022-09-12T19:19:04.445Z,2.73
2022-09-12T19:21:33.014Z,2.50
2022-09-12T19:24:04.086Z,2.27
2022-09-12T19:26:31.412Z,1.93
2022-09-12T19:29:02.401Z,2.10
2022-09-12T19:31:29.855Z,2.33
2022-09-12T19:34:01.893Z,2.43
2022-09-12T19:36:47.074Z,1.87
2022-09-12T19:39:16.363Z,2.33
2022-09-12T19:41:44.032Z,2.00
2022-09-12T19:44:13.113Z,1.70
2022-09-12T19:46:40.534Z,2.23
2022-09-12T19:49:07.700Z,1.50
2022-09-12T19:51:34.478Z,2.00
2022-09-12T19:54:01.410Z,3.17
2022-09-12T19:56:28.138Z,1.90
2022-09-12T19:58:56.797Z,3.77
2022-09-12T20:01:28.656Z,1.90
2022-09-12T20:03:57.930Z,3.37
2022-09-12T20:06:26.138Z,1.97
2022-09-12T20:08:53.204Z,2.67
2022-09-12T20:11:23.274Z,2.13
2022-09-12T20:13:50.270Z,2.10
2022-09-12T20:16:22.046Z,2.17
2022-09-12T20:18:59.834Z,2.47
2022-09-12T20:21:32.197Z,1.77
2022-09-12T20:24:10.868Z,1.83
2022-09-12T20:26:39.798Z,1.97
2022-09-12T20:29:08.343Z,2.10
2022-09-12T20:31:38.553Z,2.03
2022-09-12T20:34:06.149Z,2.50
2022-09-12T20:36:33.473Z,2.20
2022-09-12T20:39:02.348Z,2.20
2022-09-12T20:41:34.445Z,2.40
2022-09-12T20:44:01.767Z,2.53
2022-09-12T20:46:33.578Z,2.47
2022-09-12T20:49:00.420Z,2.57
2022-09-12T20:51:31.739Z,2.33
2022-09-12T20:54:00.436Z,2.97
2022-09-12T20:56:28.421Z,2.47
2022-09-12T20:58:55.920Z,2.90
2022-09-12T21:01:26.321Z,2.20
2022-09-12T21:03:53.831Z,2.33
2022-09-12T21:06:21.432Z,3.10
2022-09-12T21:08:51.104Z,2.67
2022-09-12T21:11:19.334Z,4.17
2022-09-12T21:13:46.841Z,3.07
2022-09-12T21:16:21.080Z,2.83
2022-09-12T21:18:56.675Z,3.33
2022-09-12T21:21:23.945Z,3.03
2022-09-12T21:23:51.343Z,3.40
2022-09-12T21:26:18.613Z,2.70
2022-09-12T21:28:49.480Z,3.07
2022-09-12T21:31:16.339Z,2.97
2022-09-12T21:33:44.175Z,2.70
2022-09-12T21:36:11.597Z,3.33
2022-09-12T21:38:40.771Z,2.97
2022-09-12T21:41:15.403Z,2.50
2022-09-12T21:43:42.914Z,2.70
2022-09-12T21:46:11.066Z,2.90
2022-09-12T21:48:38.012Z,2.53
2022-09-12T21:51:06.317Z,2.77
2022-09-12T21:53:33.227Z,2.90
2022-09-12T21:56:06.933Z,2.80
2022-09-12T21:58:35.665Z,3.00
2022-09-12T22:01:03.075Z,3.10
2022-09-12T22:03:29.986Z,2.77
2022-09-12T22:06:02.642Z,3.27
2022-09-12T22:08:36.068Z,2.83
2022-09-12T22:11:09.492Z,5.03
2022-09-12T22:13:39.147Z,3.07
2022-09-12T22:16:07.224Z,3.03
2022-09-12T22:18:38.143Z,3.20
2022-09-12T22:21:08.518Z,3.30
2022-09-12T22:23:53.992Z,3.27
2022-09-12T22:26:20.764Z,2.83
2022-09-12T22:28:47.801Z,2.77
2022-09-12T22:31:15.165Z,2.80
2022-09-12T22:33:42.053Z,3.10
2022-09-12T22:36:10.115Z,3.30
2022-09-12T22:38:38.169Z,2.90
2022-09-12T22:41:06.779Z,3.53
2022-09-12T22:43:34.946Z,3.10
2022-09-12T22:46:06.916Z,2.80
2022-09-12T22:48:33.970Z,2.73
2022-09-12T22:51:01.808Z,3.07
2022-09-12T22:53:28.660Z,3.33
2022-09-12T22:55:55.348Z,3.10
2022-09-12T22:58:22.404Z,3.73
2022-09-12T23:00:50.469Z,2.90
2022-09-12T23:03:18.273Z,3.30
2022-09-12T23:05:47.146Z,3.43
2022-09-12T23:08:19.586Z,3.50
2022-09-12T23:10:47.135Z,3.30
2022-09-12T23:13:14.104Z,3.10
2022-09-12T23:15:41.863Z,3.47
2022-09-12T23:18:08.687Z,3.03
2022-09-12T23:20:35.545Z,3.20
2022-09-12T23:23:02.361Z,3.10
2022-09-12T23:25:29.207Z,3.70
2022-09-12T23:27:55.945Z,3.13
2022-09-12T23:30:22.712Z,3.10
2022-09-12T23:32:49.484Z,3.00
2022-09-12T23:35:19.456Z,3.17
2022-09-12T23:37:47.147Z,3.73
2022-09-12T23:40:14.110Z,5.83
2022-09-12T23:42:41.068Z,4.87
2022-09-12T23:45:08.259Z,4.27
2022-09-12T23:47:34.991Z,3.80
2022-09-12T23:50:01.893Z,4.77
2022-09-12T23:52:29.640Z,6.27
2022-09-12T23:54:56.427Z,3.37
2022-09-12T23:57:23.338Z,5.27
2022-09-12T23:59:50.080Z,3.50
